createdAt,value
2023-04-27T00:01:27.898Z,7.61
2023-04-27T00:04:13.314Z,7.65
2023-04-27T00:06:58.771Z,7.74
2023-04-27T00:09:44.006Z,7.62
2023-04-27T00:12:29.449Z,7.28
2023-04-27T00:15:14.654Z,7.43
2023-04-27T00:18:00.255Z,7.16
2023-04-27T00:20:45.611Z,7.32
2023-04-27T00:23:30.922Z,7.26
2023-04-27T00:26:16.270Z,7.40
2023-04-27T00:29:01.602Z,7.11
2023-04-27T00:31:47.163Z,7.02
2023-04-27T00:34:32.489Z,7.36
2023-04-27T00:37:17.740Z,7.26
2023-04-27T00:40:03.135Z,6.93
2023-04-27T00:42:48.639Z,7.07
2023-04-27T00:45:35.769Z,7.12
2023-04-27T00:48:20.851Z,7.20
2023-04-27T00:51:06.225Z,7.20
2023-04-27T00:53:51.752Z,6.88
2023-04-27T00:56:37.169Z,7.26
2023-04-27T00:59:22.578Z,6.97
2023-04-27T01:02:07.880Z,6.89
2023-04-27T01:04:53.310Z,7.03
2023-04-27T01:07:38.562Z,7.05
2023-04-27T01:10:23.962Z,6.69
2023-04-27T01:13:09.468Z,6.77
2023-04-27T01:15:54.938Z,6.80
2023-04-27T01:18:40.317Z,6.85
2023-04-27T01:21:32.286Z,6.67
2023-04-27T01:24:17.392Z,6.97
2023-04-27T01:27:02.846Z,6.79
2023-04-27T01:29:48.250Z,6.75
2023-04-27T01:32:33.541Z,6.80
2023-04-27T01:35:18.775Z,6.64
2023-04-27T01:38:04.078Z,6.89
2023-04-27T01:40:49.477Z,6.60
2023-04-27T01:43:34.994Z,6.60
2023-04-27T01:46:20.312Z,6.55
2023-04-27T01:49:05.678Z,6.50
2023-04-27T01:51:51.091Z,6.43
2023-04-27T01:54:36.508Z,6.75
2023-04-27T01:57:21.312Z,6.43
2023-04-27T02:00:06.737Z,6.54
2023-04-27T02:02:52.323Z,6.28
2023-04-27T02:05:37.306Z,6.15
2023-04-27T02:08:22.394Z,6.32
2023-04-27T02:11:07.699Z,6.49
2023-04-27T02:13:53.064Z,6.45
2023-04-27T02:16:38.497Z,6.40
2023-04-27T02:19:23.849Z,6.50
2023-04-27T02:22:09.433Z,6.14
2023-04-27T02:24:54.921Z,6.51
2023-04-27T02:27:40.335Z,6.28
2023-04-27T02:30:26.342Z,6.34
2023-04-27T02:33:11.590Z,6.31
2023-04-27T02:35:57.190Z,6.39
2023-04-27T02:38:42.564Z,6.37
2023-04-27T02:41:28.148Z,6.29
2023-04-27T02:44:13.561Z,6.14
2023-04-27T02:46:59.059Z,6.46
2023-04-27T02:49:44.429Z,6.04
2023-04-27T02:52:29.489Z,6.14
2023-04-27T02:55:14.691Z,6.11
2023-04-27T02:58:00.030Z,6.39
2023-04-27T03:00:45.610Z,6.11
2023-04-27T03:03:31.250Z,5.75
2023-04-27T03:06:16.316Z,5.92
2023-04-27T03:09:01.592Z,5.96
2023-04-27T03:11:47.037Z,6.00
2023-04-27T03:14:32.278Z,5.90
2023-04-27T03:17:17.586Z,5.73
2023-04-27T03:20:02.782Z,5.72
2023-04-27T03:22:48.276Z,5.85
2023-04-27T03:25:33.623Z,5.87
2023-04-27T03:28:18.993Z,6.18
2023-04-27T03:31:04.336Z,5.75
2023-04-27T03:33:49.570Z,5.69
2023-04-27T03:36:34.911Z,5.76
2023-04-27T03:39:20.292Z,5.66
2023-04-27T03:42:05.948Z,6.16
2023-04-27T03:44:51.285Z,5.78
2023-04-27T03:47:36.698Z,5.77
2023-04-27T03:50:21.782Z,5.89
2023-04-27T03:53:07.024Z,5.79
2023-04-27T03:55:52.467Z,5.67
2023-04-27T03:58:37.785Z,5.53
2023-04-27T04:01:23.101Z,5.81
2023-04-27T04:04:08.711Z,5.76
2023-04-27T04:06:53.950Z,5.64
2023-04-27T04:09:39.397Z,5.48
2023-04-27T04:12:24.722Z,5.47
2023-04-27T04:15:10.105Z,5.52
2023-04-27T04:17:55.063Z,5.37
2023-04-27T04:20:40.206Z,5.70
2023-04-27T04:23:25.444Z,5.36
2023-04-27T04:26:10.905Z,5.52
2023-04-27T04:28:56.128Z,5.39
2023-04-27T04:31:41.157Z,5.67
2023-04-27T04:34:26.687Z,5.22
2023-04-27T04:37:12.004Z,5.43
2023-04-27T04:39:57.484Z,5.40
2023-04-27T04:42:42.783Z,5.44
2023-04-27T04:45:28.957Z,5.21
2023-04-27T04:48:14.354Z,5.12
2023-04-27T04:50:59.683Z,5.56
2023-04-27T04:53:44.971Z,5.16
2023-04-27T04:56:30.250Z,4.95
2023-04-27T04:59:15.560Z,5.14
2023-04-27T05:02:01.359Z,5.27
2023-04-27T05:04:46.682Z,5.21
2023-04-27T05:07:31.999Z,5.18
2023-04-27T05:10:17.386Z,5.09
2023-04-27T05:13:03.484Z,5.17
2023-04-27T05:15:49.799Z,5.04
2023-04-27T05:18:35.158Z,4.99
2023-04-27T05:21:20.354Z,4.83
2023-04-27T05:24:05.646Z,5.31
2023-04-27T05:26:51.008Z,5.30
2023-04-27T05:29:36.355Z,5.03
2023-04-27T05:32:21.771Z,5.20
2023-04-27T05:35:07.239Z,5.13
2023-04-27T05:37:52.522Z,4.96
2023-04-27T05:40:37.835Z,5.06
2023-04-27T05:43:23.169Z,4.79
2023-04-27T05:46:08.321Z,4.76
2023-04-27T05:48:53.685Z,4.90
2023-04-27T05:51:38.928Z,4.79
2023-04-27T05:54:24.554Z,4.93
2023-04-27T05:57:09.615Z,4.86
2023-04-27T05:59:55.008Z,4.60
2023-04-27T06:02:40.522Z,4.51
2023-04-27T06:05:25.535Z,4.64
2023-04-27T06:08:10.617Z,4.89
2023-04-27T06:10:55.646Z,4.87
2023-04-27T06:13:40.938Z,4.81
2023-04-27T06:16:26.308Z,5.30
2023-04-27T06:19:11.870Z,4.97
2023-04-27T06:21:57.268Z,5.28
2023-04-27T06:24:42.564Z,5.27
2023-04-27T06:27:28.027Z,5.05
2023-04-27T06:30:13.309Z,4.97
2023-04-27T06:32:58.753Z,4.97
2023-04-27T06:35:46.481Z,4.91
2023-04-27T06:38:32.205Z,4.77
2023-04-27T06:41:17.742Z,4.89
2023-04-27T06:44:03.118Z,4.83
2023-04-27T06:46:48.283Z,4.72
2023-04-27T06:49:33.832Z,4.41
2023-04-27T06:52:19.189Z,5.00
2023-04-27T06:55:04.637Z,4.74
2023-04-27T06:57:50.137Z,4.62
2023-04-27T07:00:35.579Z,4.66
2023-04-27T07:03:21.414Z,4.36
2023-04-27T07:06:06.463Z,4.64
2023-04-27T07:08:51.959Z,4.64
2023-04-27T07:11:37.289Z,4.30
2023-04-27T07:14:22.832Z,4.44
2023-04-27T07:17:08.106Z,4.48
2023-04-27T07:19:53.319Z,4.66
2023-04-27T07:22:38.808Z,4.36
2023-04-27T07:25:24.250Z,4.15
2023-04-27T07:28:09.561Z,4.34
2023-04-27T07:30:54.691Z,4.38
2023-04-27T07:33:40.211Z,4.22
2023-04-27T07:36:25.728Z,4.35
2023-04-27T07:39:11.103Z,4.20
2023-04-27T07:41:56.534Z,4.11
2023-04-27T07:44:43.102Z,3.98
2023-04-27T07:47:28.544Z,3.99
2023-04-27T07:50:14.157Z,4.07
2023-04-27T07:52:59.529Z,4.02
2023-04-27T07:55:44.590Z,4.01
2023-04-27T07:58:29.925Z,3.94
2023-04-27T08:01:15.311Z,3.95
2023-04-27T08:04:00.838Z,4.13
2023-04-27T08:06:47.062Z,3.81
2023-04-27T08:09:32.540Z,3.93
2023-04-27T08:12:17.937Z,3.87
2023-04-27T08:15:03.294Z,4.06
2023-04-27T08:17:48.820Z,3.83
2023-04-27T08:20:34.182Z,4.10
2023-04-27T08:23:19.647Z,4.07
2023-04-27T08:26:04.623Z,3.80
2023-04-27T08:28:50.110Z,3.61
2023-04-27T08:31:35.772Z,3.62
2023-04-27T08:34:20.901Z,3.60
2023-04-27T08:37:06.272Z,3.51
2023-04-27T08:39:51.460Z,3.53
2023-04-27T08:42:36.759Z,3.73
2023-04-27T08:45:22.983Z,3.66
2023-04-27T08:48:08.376Z,3.64
2023-04-27T08:50:53.819Z,3.60
2023-04-27T08:53:39.153Z,3.91
2023-04-27T08:56:24.690Z,3.52
2023-04-27T08:59:10.038Z,3.48
2023-04-27T09:01:55.323Z,3.67
2023-04-27T09:04:40.897Z,3.38
2023-04-27T09:07:27.416Z,3.52
2023-04-27T09:10:13.701Z,3.38
2023-04-27T09:12:58.935Z,3.50
2023-04-27T09:15:46.267Z,3.53
2023-04-27T09:18:34.192Z,3.41
2023-04-27T09:21:19.452Z,3.41
2023-04-27T09:24:04.735Z,3.44
2023-04-27T09:26:50.101Z,3.24
2023-04-27T09:29:35.547Z,3.05
2023-04-27T09:32:21.110Z,3.31
2023-04-27T09:35:06.586Z,3.20
2023-04-27T09:37:51.842Z,3.41
2023-04-27T09:40:37.359Z,3.23
2023-04-27T09:43:22.794Z,3.08
2023-04-27T09:46:08.313Z,3.26
2023-04-27T09:48:53.544Z,3.14
2023-04-27T09:51:38.978Z,3.18
2023-04-27T09:54:24.433Z,3.14
2023-04-27T09:57:09.739Z,3.16
2023-04-27T09:59:55.216Z,3.08
2023-04-27T10:02:52.575Z,3.10
2023-04-27T10:05:40.249Z,3.18
2023-04-27T10:08:25.315Z,3.21
2023-04-27T10:11:10.785Z,3.24
2023-04-27T10:13:56.076Z,3.22
2023-04-27T10:16:41.315Z,3.08
2023-04-27T10:19:26.603Z,3.17
2023-04-27T10:22:11.988Z,2.98
2023-04-27T10:24:57.562Z,3.02
2023-04-27T10:27:42.924Z,2.80
2023-04-27T10:30:28.046Z,3.01
2023-04-27T10:33:13.536Z,3.05
2023-04-27T10:35:58.930Z,3.06
2023-04-27T10:38:44.448Z,2.84
2023-04-27T10:41:29.751Z,2.94
2023-04-27T10:44:15.268Z,3.13
2023-04-27T10:47:00.670Z,3.03
2023-04-27T10:49:46.049Z,2.81
2023-04-27T10:52:31.641Z,2.93
2023-04-27T10:55:17.007Z,2.95
2023-04-27T10:58:02.299Z,3.04
2023-04-27T11:00:47.716Z,2.84
2023-04-27T11:03:33.007Z,3.00
2023-04-27T11:06:18.481Z,2.88
2023-04-27T11:09:03.821Z,3.04
2023-04-27T11:11:49.335Z,2.85
2023-04-27T11:14:34.491Z,2.80
2023-04-27T11:17:19.990Z,2.78
2023-04-27T11:20:05.323Z,2.82
2023-04-27T11:22:50.758Z,2.84
2023-04-27T11:25:36.311Z,2.72
2023-04-27T11:28:21.595Z,2.81
2023-04-27T11:31:07.000Z,3.13
2023-04-27T11:33:52.220Z,2.94
2023-04-27T11:36:37.969Z,2.81
2023-04-27T11:39:23.444Z,2.85
2023-04-27T11:42:08.981Z,2.97
2023-04-27T11:44:54.422Z,2.74
2023-04-27T11:47:39.805Z,3.00
2023-04-27T11:50:25.240Z,2.63
2023-04-27T11:53:10.559Z,2.83
2023-04-27T11:55:55.805Z,2.87
2023-04-27T11:58:41.183Z,2.72
2023-04-27T12:01:36.905Z,2.84
2023-04-27T12:04:23.489Z,2.67
2023-04-27T12:07:08.551Z,2.80
2023-04-27T12:09:53.999Z,2.78
2023-04-27T12:12:39.431Z,2.55
2023-04-27T12:15:24.666Z,2.56
2023-04-27T12:18:10.172Z,2.63
2023-04-27T12:20:55.418Z,2.59
2023-04-27T12:23:40.399Z,2.57
2023-04-27T12:26:25.575Z,2.68
2023-04-27T12:29:10.998Z,2.60
2023-04-27T12:31:56.367Z,2.91
2023-04-27T12:34:41.746Z,2.82
2023-04-27T12:37:27.275Z,2.63
2023-04-27T12:40:12.435Z,2.65
2023-04-27T12:43:00.478Z,2.56
2023-04-27T12:45:46.107Z,2.75
2023-04-27T12:48:31.427Z,2.68
2023-04-27T12:51:16.797Z,2.50
2023-04-27T12:54:02.114Z,2.61
2023-04-27T12:56:47.599Z,2.57
2023-04-27T12:59:32.806Z,2.53
2023-04-27T13:02:18.179Z,2.39
2023-04-27T13:05:03.656Z,2.63
2023-04-27T13:07:48.816Z,2.57
2023-04-27T13:10:34.434Z,2.58
2023-04-27T13:13:19.726Z,2.56
2023-04-27T13:16:05.136Z,2.49
2023-04-27T13:18:50.553Z,2.62
2023-04-27T13:21:35.918Z,2.55
2023-04-27T13:24:21.473Z,2.55
2023-04-27T13:27:06.671Z,2.49
2023-04-27T13:29:52.196Z,2.45
2023-04-27T13:32:37.689Z,2.46
2023-04-27T13:35:22.821Z,2.41
2023-04-27T13:38:07.994Z,2.80
2023-04-27T13:40:53.348Z,2.62
2023-04-27T13:43:38.850Z,2.30
2023-04-27T13:46:24.373Z,2.43
2023-04-27T13:49:09.794Z,2.37
2023-04-27T13:51:55.208Z,2.33
2023-04-27T13:54:40.290Z,2.37
2023-04-27T13:57:25.796Z,2.42
2023-04-27T14:00:10.836Z,2.36
2023-04-27T14:02:56.597Z,2.53
2023-04-27T14:05:41.827Z,2.30
2023-04-27T14:08:27.211Z,2.27
2023-04-27T14:11:12.823Z,2.25
2023-04-27T14:13:58.158Z,2.23
2023-04-27T14:16:43.851Z,2.23
2023-04-27T14:19:29.073Z,2.15
2023-04-27T14:22:14.451Z,2.27
2023-04-27T14:24:59.903Z,2.20
2023-04-27T14:27:45.336Z,2.00
2023-04-27T14:30:30.720Z,2.20
2023-04-27T14:33:16.189Z,2.05
2023-04-27T14:36:01.565Z,1.99
2023-04-27T14:38:46.869Z,2.21
2023-04-27T14:41:32.179Z,2.13
2023-04-27T14:44:17.515Z,2.13
2023-04-27T14:47:02.811Z,2.00
2023-04-27T14:49:48.234Z,2.08
2023-04-27T14:52:34.128Z,1.92
2023-04-27T14:55:19.501Z,2.16
2023-04-27T14:58:05.172Z,2.15
2023-04-27T15:00:50.384Z,2.08
2023-04-27T15:03:36.022Z,2.11
2023-04-27T15:06:21.195Z,2.08
2023-04-27T15:09:06.647Z,2.20
2023-04-27T15:11:52.135Z,1.98
2023-04-27T15:14:37.448Z,1.99
2023-04-27T15:17:22.855Z,2.00
2023-04-27T15:20:08.272Z,1.87
2023-04-27T15:22:53.765Z,1.91
2023-04-27T15:25:39.051Z,1.85
2023-04-27T15:28:24.496Z,1.90
2023-04-27T15:31:09.898Z,1.96
2023-04-27T15:33:55.233Z,1.80
2023-04-27T15:36:40.848Z,1.71
2023-04-27T15:39:26.108Z,1.88
2023-04-27T15:42:11.453Z,1.77
2023-04-27T15:44:56.611Z,1.80
2023-04-27T15:47:41.982Z,1.68
2023-04-27T15:50:27.097Z,1.44
2023-04-27T15:53:12.369Z,1.43
2023-04-27T15:55:57.709Z,1.35
2023-04-27T15:58:43.204Z,1.32
2023-04-27T16:01:28.709Z,1.33
2023-04-27T16:04:14.176Z,1.30
2023-04-27T16:06:59.390Z,1.31
2023-04-27T16:09:44.542Z,1.37
2023-04-27T16:12:29.753Z,1.32
2023-04-27T16:15:15.226Z,1.41
2023-04-27T16:18:00.611Z,1.25
2023-04-27T16:20:45.748Z,1.36
2023-04-27T16:23:31.251Z,1.42
2023-04-27T16:26:16.517Z,1.40
2023-04-27T16:29:01.831Z,1.50
2023-04-27T16:31:47.248Z,1.40
2023-04-27T16:34:32.491Z,1.32
2023-04-27T16:37:17.914Z,1.53
2023-04-27T16:40:03.333Z,1.57
2023-04-27T16:42:48.702Z,1.89
2023-04-27T16:45:33.992Z,1.84
2023-04-27T16:48:19.362Z,2.07
2023-04-27T16:51:05.052Z,2.34
2023-04-27T16:53:50.199Z,2.33
2023-04-27T16:56:35.576Z,2.24
2023-04-27T16:59:20.751Z,2.71
2023-04-27T17:02:20.863Z,2.38
2023-04-27T17:05:09.396Z,2.48
2023-04-27T17:07:54.675Z,2.29
2023-04-27T17:10:40.072Z,2.40
2023-04-27T17:13:25.300Z,2.74
2023-04-27T17:16:10.809Z,2.70
2023-04-27T17:18:56.234Z,2.73
2023-04-27T17:21:41.620Z,2.60
2023-04-27T17:24:27.177Z,2.70
2023-04-27T17:27:12.606Z,2.44
2023-04-27T17:29:58.101Z,2.38
2023-04-27T17:32:43.253Z,2.43
2023-04-27T17:35:28.500Z,2.52
2023-04-27T17:38:13.890Z,2.47
2023-04-27T17:40:59.006Z,2.41
2023-04-27T17:43:44.327Z,2.55
2023-04-27T17:46:29.441Z,2.46
2023-04-27T17:49:15.065Z,2.54
2023-04-27T17:52:00.242Z,2.43
2023-04-27T17:54:45.282Z,2.49
2023-04-27T17:57:30.815Z,2.38
2023-04-27T18:00:16.130Z,2.37
2023-04-27T18:03:01.717Z,2.33
2023-04-27T18:05:46.761Z,2.56
2023-04-27T18:08:31.643Z,2.63
2023-04-27T18:11:16.757Z,2.38
2023-04-27T18:14:02.038Z,2.43
2023-04-27T18:16:47.490Z,2.40
2023-04-27T18:19:34.601Z,2.41
2023-04-27T18:22:19.698Z,2.38
2023-04-27T18:25:05.013Z,2.37
2023-04-27T18:27:50.313Z,2.40
2023-04-27T18:30:35.696Z,2.42
2023-04-27T18:33:21.038Z,2.37
2023-04-27T18:36:06.185Z,2.35
2023-04-27T18:38:54.754Z,2.55
2023-04-27T18:41:40.343Z,2.39
2023-04-27T18:44:25.598Z,2.39
2023-04-27T18:47:10.604Z,2.43
2023-04-27T18:49:56.024Z,2.51
2023-04-27T18:52:43.719Z,2.33
2023-04-27T18:55:30.035Z,2.29
2023-04-27T18:58:15.211Z,2.64
2023-04-27T19:01:00.762Z,2.42
2023-04-27T19:03:46.164Z,2.29
2023-04-27T19:06:31.554Z,2.47
2023-04-27T19:09:16.962Z,2.35
2023-04-27T19:12:03.388Z,2.42
2023-04-27T19:14:48.903Z,2.19
2023-04-27T19:17:34.502Z,2.42
2023-04-27T19:20:20.302Z,2.37
2023-04-27T19:23:07.723Z,2.41
2023-04-27T19:25:55.140Z,2.22
2023-04-27T19:28:42.729Z,2.37
2023-04-27T19:31:28.134Z,2.47
2023-04-27T19:34:13.329Z,2.37
2023-04-27T19:36:58.752Z,2.61
2023-04-27T19:39:43.968Z,2.72
2023-04-27T19:42:29.467Z,2.52
2023-04-27T19:45:14.800Z,2.63
2023-04-27T19:48:00.393Z,2.27
2023-04-27T19:50:45.718Z,2.48
2023-04-27T19:53:30.992Z,2.46
2023-04-27T19:56:16.606Z,2.74
2023-04-27T19:59:01.966Z,2.63
2023-04-27T20:01:47.513Z,2.56
2023-04-27T20:04:33.356Z,2.62
2023-04-27T20:07:22.037Z,2.53
2023-04-27T20:10:07.369Z,3.03
2023-04-27T20:12:56.563Z,2.74
2023-04-27T20:15:42.240Z,2.78
2023-04-27T20:18:28.043Z,2.90
2023-04-27T20:21:13.307Z,2.95
2023-04-27T20:23:58.679Z,2.96
2023-04-27T20:26:44.227Z,2.94
2023-04-27T20:29:29.570Z,2.95
2023-04-27T20:32:15.113Z,2.94
2023-04-27T20:35:02.077Z,2.89
2023-04-27T20:37:47.224Z,3.08
2023-04-27T20:40:32.531Z,2.78
2023-04-27T20:43:17.861Z,3.08
2023-04-27T20:46:03.328Z,3.16
2023-04-27T20:48:48.776Z,3.09
2023-04-27T20:51:34.081Z,3.12
2023-04-27T20:54:19.497Z,3.18
2023-04-27T20:57:04.726Z,3.09
2023-04-27T20:59:50.095Z,3.21
2023-04-27T21:02:35.597Z,2.99
2023-04-27T21:05:20.919Z,3.36
2023-04-27T21:08:06.080Z,3.18
2023-04-27T21:10:51.278Z,2.94
2023-04-27T21:13:36.787Z,3.17
2023-04-27T21:16:22.021Z,3.32
2023-04-27T21:19:07.213Z,3.19
2023-04-27T21:21:52.718Z,3.24
2023-04-27T21:24:37.970Z,3.11
2023-04-27T21:27:23.374Z,3.30
2023-04-27T21:30:08.806Z,3.20
2023-04-27T21:32:54.516Z,3.46
2023-04-27T21:35:39.868Z,3.36
2023-04-27T21:38:25.218Z,3.24
2023-04-27T21:41:10.292Z,3.21
2023-04-27T21:43:55.415Z,3.34
2023-04-27T21:46:40.893Z,3.17
2023-04-27T21:49:26.207Z,3.29
2023-04-27T21:52:11.667Z,3.33
2023-04-27T21:54:57.218Z,3.40
2023-04-27T21:57:42.253Z,3.16
2023-04-27T22:00:27.684Z,3.60
2023-04-27T22:03:13.277Z,3.40
2023-04-27T22:05:58.333Z,3.24
2023-04-27T22:08:43.938Z,3.39
2023-04-27T22:11:29.122Z,3.29
2023-04-27T22:14:14.753Z,3.03
2023-04-27T22:16:59.871Z,3.50
2023-04-27T22:19:45.865Z,3.31
2023-04-27T22:22:31.201Z,3.31
2023-04-27T22:25:16.404Z,3.57
2023-04-27T22:28:02.025Z,3.40
2023-04-27T22:30:47.248Z,3.49
2023-04-27T22:33:32.485Z,3.40
2023-04-27T22:36:17.677Z,3.70
2023-04-27T22:39:03.203Z,3.82
2023-04-27T22:41:48.611Z,3.79
2023-04-27T22:44:34.093Z,3.91
2023-04-27T22:47:19.725Z,3.97
2023-04-27T22:50:04.811Z,3.77
2023-04-27T22:52:50.138Z,3.96
2023-04-27T22:55:35.582Z,4.00
2023-04-27T22:58:21.063Z,4.08
2023-04-27T23:01:06.615Z,3.89
2023-04-27T23:03:51.917Z,3.89
2023-04-27T23:06:37.165Z,4.11
2023-04-27T23:09:22.482Z,3.85
2023-04-27T23:12:07.923Z,3.97
2023-04-27T23:14:53.361Z,3.79
2023-04-27T23:17:38.648Z,3.76
2023-04-27T23:20:28.708Z,3.80
2023-04-27T23:23:14.468Z,3.89
2023-04-27T23:25:59.838Z,3.87
2023-04-27T23:28:45.142Z,3.88
2023-04-27T23:31:30.512Z,4.24
2023-04-27T23:34:16.200Z,4.19
2023-04-27T23:37:01.861Z,4.27
2023-04-27T23:39:47.210Z,4.34
2023-04-27T23:42:32.604Z,4.51
2023-04-27T23:45:17.719Z,4.44
2023-04-27T23:48:03.249Z,4.45
2023-04-27T23:50:48.658Z,4.35
2023-04-27T23:53:34.004Z,4.15
2023-04-27T23:56:19.536Z,4.34
2023-04-27T23:59:04.888Z,4.08
